Time;durP1;ratioP1;P1;durP2;ratioP2;P2;SDS_P1;SDS_P2;PMS_P1;PMS_P2;Temp;Humidity;BMP_temperature;BMP_pressure;BME280_temperature;BME280_humidity;BME280_pressure;Samples;Min_cycle;Max_cycle;Signal;HPM_P1;HPM_P2
2022/11/30 00:00:53;;;;;;;35.13;24.80;;;5.50;99.90;;;;;;4912080;29;20213;-72
2022/11/30 00:03:19;;;;;;;38.80;26.10;;;5.50;99.90;;;;;;4912256;29;20208;-72
2022/11/30 00:05:46;;;;;;;35.23;25.40;;;5.50;99.90;;;;;;4912152;29;20299;-73
2022/11/30 00:08:15;;;;;;;37.43;25.23;;;5.50;99.90;;;;;;4911044;29;20359;-72
2022/11/30 00:10:42;;;;;;;40.53;26.30;;;5.50;99.90;;;;;;4911323;29;20237;-72
2022/11/30 00:13:09;;;;;;;37.33;25.47;;;5.50;99.90;;;;;;4912243;29;20401;-72
2022/11/30 00:15:37;;;;;;;37.43;25.10;;;5.50;99.90;;;;;;4911887;29;20672;-72
2022/11/30 00:18:04;;;;;;;38.53;24.57;;;5.50;99.90;;;;;;4912163;29;20291;-72
2022/11/30 00:20:31;;;;;;;38.80;25.83;;;5.40;99.90;;;;;;4911742;29;20703;-72
2022/11/30 00:22:58;;;;;;;38.47;26.33;;;5.40;99.90;;;;;;4911783;29;20260;-72
2022/11/30 00:25:26;;;;;;;36.87;26.27;;;5.40;99.90;;;;;;4911553;29;20277;-72
2022/11/30 00:27:53;;;;;;;37.90;25.97;;;5.40;99.90;;;;;;4911711;29;20276;-72
2022/11/30 00:30:20;;;;;;;37.73;26.40;;;5.50;99.90;;;;;;4911499;29;20327;-72
2022/11/30 00:32:47;;;;;;;35.37;25.47;;;5.50;99.90;;;;;;4910659;29;20643;-72
2022/11/30 00:35:16;;;;;;;39.30;26.60;;;5.50;99.90;;;;;;4911589;29;20208;-71
2022/11/30 00:37:43;;;;;;;41.90;26.63;;;5.50;99.90;;;;;;4911456;29;20296;-71
2022/11/30 00:40:11;;;;;;;39.90;26.27;;;5.50;99.90;;;;;;4911586;29;20556;-72
2022/11/30 00:42:40;;;;;;;38.60;26.50;;;5.50;99.90;;;;;;4911274;29;20220;-73
2022/11/30 00:45:08;;;;;;;35.40;25.03;;;5.50;99.90;;;;;;4911608;29;20835;-72
2022/11/30 00:47:35;;;;;;;38.87;25.73;;;5.50;99.90;;;;;;4910959;29;20579;-73
2022/11/30 00:50:02;;;;;;;37.33;26.77;;;5.50;99.90;;;;;;4911114;29;20197;-72
2022/11/30 00:52:29;;;;;;;35.80;25.27;;;5.40;99.90;;;;;;4911191;29;20272;-71
2022/11/30 00:54:56;;;;;;;38.33;25.73;;;5.50;99.90;;;;;;4911199;29;20209;-70
2022/11/30 00:57:23;;;;;;;37.87;25.00;;;5.50;99.90;;;;;;4911360;29;20345;-70
2022/11/30 00:59:51;;;;;;;37.50;26.57;;;5.50;99.90;;;;;;4911280;29;20251;-70
2022/11/30 01:02:18;;;;;;;33.97;25.97;;;5.50;99.90;;;;;;4911361;29;20300;-70
2022/11/30 01:04:45;;;;;;;36.73;26.10;;;5.50;99.90;;;;;;4911168;29;20248;-70
2022/11/30 01:07:12;;;;;;;39.10;26.40;;;5.50;99.90;;;;;;4911139;29;20339;-72
2022/11/30 01:09:39;;;;;;;37.70;25.73;;;5.50;99.90;;;;;;4910730;29;20227;-72
2022/11/30 01:12:06;;;;;;;35.23;25.80;;;5.50;99.90;;;;;;4911614;29;20337;-72
2022/11/30 01:14:33;;;;;;;36.23;25.90;;;5.50;99.90;;;;;;4911367;29;20208;-72
2022/11/30 01:17:01;;;;;;;38.57;26.30;;;5.50;99.90;;;;;;4911255;29;20303;-72
2022/11/30 01:19:28;;;;;;;38.07;26.10;;;5.50;99.90;;;;;;4913698;29;20653;-73
2022/11/30 01:21:55;;;;;;;37.77;26.23;;;5.40;99.90;;;;;;4914988;29;20743;-72
2022/11/30 01:24:22;;;;;;;43.47;28.37;;;5.40;99.90;;;;;;4914901;29;20308;-72
2022/11/30 01:26:48;;;;;;;40.30;25.77;;;5.40;99.90;;;;;;4915235;29;20327;-73
2022/11/30 01:29:15;;;;;;;38.13;26.20;;;5.50;99.90;;;;;;4915266;29;20299;-73
2022/11/30 01:31:42;;;;;;;39.17;27.00;;;5.50;99.90;;;;;;4914766;29;20449;-73
2022/11/30 01:34:10;;;;;;;39.53;25.80;;;5.50;99.90;;;;;;4914757;29;20760;-72
2022/11/30 01:36:37;;;;;;;39.20;26.90;;;5.50;99.90;;;;;;4915127;29;20653;-73
2022/11/30 01:39:08;;;;;;;37.90;26.00;;;5.50;99.90;;;;;;4914276;29;20236;-73
2022/11/30 01:41:35;;;;;;;36.33;25.83;;;5.50;99.90;;;;;;4914698;29;20285;-73
2022/11/30 01:44:35;;;;;;;39.73;27.40;;;5.50;99.90;;;;;;4914445;29;20296;-73
2022/11/30 01:47:06;;;;;;;40.27;26.50;;;5.50;99.90;;;;;;4914429;29;20753;-73
2022/11/30 01:49:38;;;;;;;38.03;27.00;;;5.40;99.90;;;;;;4914532;29;20248;-73
2022/11/30 01:52:11;;;;;;;41.50;26.90;;;5.50;99.90;;;;;;4914599;29;20323;-73
2022/11/30 01:54:43;;;;;;;38.10;27.20;;;5.50;99.90;;;;;;4914215;29;20300;-73
2022/11/30 01:57:18;;;;;;;39.50;27.10;;;5.50;99.90;;;;;;4914425;29;20236;-71
2022/11/30 01:59:46;;;;;;;41.27;27.93;;;5.40;99.90;;;;;;4913996;29;20680;-72
2022/11/30 02:02:14;;;;;;;41.37;27.17;;;5.40;99.90;;;;;;4914139;29;20209;-71
2022/11/30 02:04:42;;;;;;;39.53;26.57;;;5.50;99.90;;;;;;4913966;29;20570;-72
2022/11/30 02:07:09;;;;;;;41.13;26.93;;;5.40;99.90;;;;;;4914046;29;20339;-72
2022/11/30 02:09:42;;;;;;;40.00;26.90;;;5.40;99.90;;;;;;4913938;29;20256;-71
2022/11/30 02:12:19;;;;;;;36.77;26.43;;;5.40;99.90;;;;;;4914023;29;20596;-72
2022/11/30 02:14:49;;;;;;;40.43;27.33;;;5.40;99.90;;;;;;4924024;29;20299;-72
2022/11/30 02:17:25;;;;;;;38.73;27.13;;;5.40;99.90;;;;;;4914184;29;20829;-72
2022/11/30 02:20:24;;;;;;;40.60;26.67;;;5.40;99.90;;;;;;4914086;29;20232;-72
2022/11/30 02:23:09;;;;;;;35.87;25.60;;;5.40;99.90;;;;;;4894847;29;20708;-72
2022/11/30 02:25:45;;;;;;;41.17;27.67;;;5.40;99.90;;;;;;4895070;29;20300;-71
2022/11/30 02:28:47;;;;;;;36.57;26.67;;;5.40;99.90;;;;;;4902309;29;20284;-71
2022/11/30 02:31:21;;;;;;;39.90;27.27;;;5.40;99.90;;;;;;4878260;29;20669;-72
2022/11/30 02:33:50;;;;;;;40.00;28.07;;;5.40;99.90;;;;;;4913856;29;20224;-71
2022/11/30 02:36:18;;;;;;;42.73;26.77;;;5.40;99.90;;;;;;4913830;29;20212;-71
2022/11/30 02:38:46;;;;;;;37.53;27.43;;;5.40;99.90;;;;;;4913206;29;20734;-71
2022/11/30 02:41:13;;;;;;;39.73;27.23;;;5.40;99.90;;;;;;4913273;29;20673;-71
2022/11/30 02:43:40;;;;;;;39.80;27.53;;;5.40;99.90;;;;;;4913358;29;20216;-71
2022/11/30 02:46:14;;;;;;;35.63;26.87;;;5.40;99.90;;;;;;4913848;29;20248;-71
2022/11/30 02:48:49;;;;;;;38.90;27.40;;;5.40;99.90;;;;;;4913267;29;20223;-71
2022/11/30 02:51:19;;;;;;;41.87;26.70;;;5.40;99.90;;;;;;4913513;29;20220;-71
2022/11/30 02:53:47;;;;;;;43.30;27.67;;;5.40;99.90;;;;;;4913022;29;20217;-71
2022/11/30 02:56:14;;;;;;;37.90;26.93;;;5.40;99.90;;;;;;4898939;29;20209;-72
2022/11/30 02:58:41;;;;;;;38.30;26.67;;;5.30;99.90;;;;;;4898348;29;20296;-71
2022/11/30 03:01:09;;;;;;;40.70;27.67;;;5.40;99.90;;;;;;4913595;29;20220;-71
2022/11/30 03:03:35;;;;;;;39.90;26.20;;;5.30;99.90;;;;;;4913292;29;20305;-71
2022/11/30 03:06:04;;;;;;;43.40;28.43;;;5.40;99.90;;;;;;4913561;29;20223;-71
2022/11/30 03:08:31;;;;;;;39.07;26.73;;;5.40;99.90;;;;;;4912756;29;20359;-73
2022/11/30 03:11:01;;;;;;;37.87;27.63;;;5.40;99.90;;;;;;4912725;29;20252;-71
2022/11/30 03:13:29;;;;;;;41.77;27.63;;;5.40;99.90;;;;;;4913240;29;20292;-71
2022/11/30 03:15:56;;;;;;;39.37;27.13;;;5.40;99.90;;;;;;4913133;29;20650;-72
2022/11/30 03:18:23;;;;;;;37.67;26.70;;;5.30;99.90;;;;;;4913344;29;20213;-71
2022/11/30 03:20:50;;;;;;;40.13;28.00;;;5.30;99.90;;;;;;4912495;29;20295;-71
2022/11/30 03:23:18;;;;;;;38.70;27.33;;;5.30;99.90;;;;;;4912904;29;20205;-72
2022/11/30 03:25:45;;;;;;;37.43;27.07;;;5.40;99.90;;;;;;4912495;29;20629;-72
2022/11/30 03:28:12;;;;;;;41.07;27.73;;;5.30;99.90;;;;;;4913133;29;20231;-72
2022/11/30 03:30:39;;;;;;;39.93;27.30;;;5.40;99.90;;;;;;4910805;29;20272;-72
2022/11/30 03:33:05;;;;;;;38.30;26.03;;;5.30;99.90;;;;;;4910681;29;20243;-72
2022/11/30 03:35:32;;;;;;;41.13;28.30;;;5.30;99.90;;;;;;4910601;29;20248;-71
2022/11/30 03:37:59;;;;;;;40.53;27.63;;;5.30;99.90;;;;;;4909802;29;20288;-71
2022/11/30 03:40:27;;;;;;;39.00;27.80;;;5.30;99.90;;;;;;4910291;29;20248;-71
2022/11/30 03:42:54;;;;;;;41.23;26.67;;;5.30;99.90;;;;;;4910878;29;20351;-71
2022/11/30 03:45:21;;;;;;;38.23;26.67;;;5.30;99.90;;;;;;4911018;29;20259;-71
2022/11/30 03:47:48;;;;;;;38.07;26.47;;;5.30;99.90;;;;;;4910657;29;20295;-71
2022/11/30 03:50:15;;;;;;;39.90;27.30;;;5.30;99.90;;;;;;4910842;29;20208;-72
2022/11/30 03:52:42;;;;;;;37.07;26.30;;;5.30;99.90;;;;;;4910170;29;20276;-72
2022/11/30 03:55:09;;;;;;;42.40;27.23;;;5.30;99.90;;;;;;4909928;29;20305;-71
2022/11/30 03:57:37;;;;;;;38.50;26.53;;;5.30;99.90;;;;;;4910294;29;20244;-71
2022/11/30 04:00:06;;;;;;;39.93;28.17;;;5.30;99.90;;;;;;4909669;29;20304;-71
2022/11/30 04:02:33;;;;;;;40.27;28.27;;;5.30;99.90;;;;;;4911463;29;20219;-71
2022/11/30 04:05:00;;;;;;;39.20;27.57;;;5.30;99.90;;;;;;4912011;29;20745;-72
2022/11/30 04:07:27;;;;;;;37.83;26.20;;;5.30;99.90;;;;;;4910789;29;20333;-72
2022/11/30 04:09:54;;;;;;;39.30;26.67;;;5.30;99.90;;;;;;4909913;29;20201;-72
2022/11/30 04:12:21;;;;;;;38.73;27.27;;;5.30;99.90;;;;;;4911320;29;20233;-72
2022/11/30 04:14:49;;;;;;;38.47;26.93;;;5.30;99.90;;;;;;4911438;29;20582;-72
2022/11/30 04:17:16;;;;;;;38.83;27.77;;;5.30;99.90;;;;;;4911374;29;20255;-72
2022/11/30 04:19:43;;;;;;;39.57;26.87;;;5.30;99.90;;;;;;4911309;29;20305;-72
2022/11/30 04:22:10;;;;;;;38.53;25.87;;;5.30;99.90;;;;;;4912086;29;20240;-72
2022/11/30 04:24:37;;;;;;;38.33;26.30;;;5.30;99.90;;;;;;4911519;29;20291;-72
2022/11/30 04:27:03;;;;;;;36.20;24.47;;;5.30;99.90;;;;;;4911903;29;20303;-72
2022/11/30 04:29:30;;;;;;;37.27;26.03;;;5.30;99.90;;;;;;4911800;29;20284;-72
2022/11/30 04:31:58;;;;;;;38.70;26.83;;;5.30;99.90;;;;;;4911469;29;20272;-72
2022/11/30 04:34:27;;;;;;;38.17;26.47;;;5.30;99.90;;;;;;4911627;29;20219;-72
2022/11/30 04:36:54;;;;;;;38.33;25.73;;;5.30;99.90;;;;;;4911316;29;20225;-72
2022/11/30 04:39:21;;;;;;;36.50;25.40;;;5.30;99.90;;;;;;4911473;29;20247;-72
2022/11/30 04:41:48;;;;;;;38.77;27.10;;;5.30;99.90;;;;;;4911461;29;20224;-72
2022/11/30 04:44:15;;;;;;;35.50;25.53;;;5.30;99.90;;;;;;4911780;29;20312;-72
2022/11/30 04:46:42;;;;;;;35.40;25.60;;;5.30;99.90;;;;;;4911303;29;20954;-72
2022/11/30 04:49:10;;;;;;;36.80;25.83;;;5.30;99.90;;;;;;4909872;29;20204;-72
2022/11/30 04:51:37;;;;;;;38.37;26.90;;;5.30;99.90;;;;;;4911188;29;20219;-72
2022/11/30 04:54:04;;;;;;;38.50;26.63;;;5.30;99.90;;;;;;4910654;29;20295;-72
2022/11/30 04:56:31;;;;;;;37.80;25.30;;;5.30;99.90;;;;;;4911470;29;20212;-72
2022/11/30 04:58:58;;;;;;;39.03;26.57;;;5.30;99.90;;;;;;4911555;29;20320;-72
2022/11/30 05:01:25;;;;;;;38.13;25.73;;;5.30;99.90;;;;;;4911289;29;20672;-72
2022/11/30 05:03:51;;;;;;;37.57;26.33;;;5.30;99.90;;;;;;4911061;29;20332;-72
2022/11/30 05:06:20;;;;;;;33.23;24.93;;;5.30;99.90;;;;;;4911644;29;20209;-72
2022/11/30 05:08:47;;;;;;;37.80;26.53;;;5.30;99.90;;;;;;4910749;29;20237;-72
2022/11/30 05:11:14;;;;;;;38.10;26.47;;;5.30;99.90;;;;;;4911065;29;20584;-72
2022/11/30 05:13:40;;;;;;;35.27;25.93;;;5.30;99.90;;;;;;4911008;29;20332;-72
2022/11/30 05:16:09;;;;;;;36.83;25.53;;;5.30;99.90;;;;;;4911671;29;20552;-72
2022/11/30 05:18:36;;;;;;;37.23;25.87;;;5.30;99.90;;;;;;4911472;29;20208;-72
2022/11/30 05:21:03;;;;;;;39.37;26.00;;;5.20;99.90;;;;;;4911429;29;20241;-72
2022/11/30 05:23:31;;;;;;;36.23;26.30;;;5.20;99.90;;;;;;4911169;29;20252;-72
2022/11/30 05:26:01;;;;;;;40.93;27.10;;;5.20;99.90;;;;;;4910967;29;20209;-72
2022/11/30 05:28:28;;;;;;;39.83;26.77;;;5.20;99.90;;;;;;4911695;29;20324;-71
2022/11/30 05:30:55;;;;;;;39.87;26.53;;;5.20;99.90;;;;;;4911195;29;20408;-71
2022/11/30 05:33:22;;;;;;;40.13;27.63;;;5.20;99.90;;;;;;4911450;29;20268;-72
2022/11/30 05:35:51;;;;;;;37.43;26.67;;;5.20;99.90;;;;;;4911193;29;20761;-71
2022/11/30 05:38:18;;;;;;;39.00;27.20;;;5.20;99.90;;;;;;4910864;29;20764;-71
2022/11/30 05:40:48;;;;;;;37.13;26.20;;;5.20;99.90;;;;;;4910471;29;20305;-71
2022/11/30 05:43:15;;;;;;;37.63;26.03;;;5.20;99.90;;;;;;4910794;29;20574;-72
2022/11/30 05:45:42;;;;;;;36.27;26.03;;;5.20;99.90;;;;;;4910778;29;20744;-72
2022/11/30 05:48:08;;;;;;;38.33;26.53;;;5.20;99.90;;;;;;4910402;29;20740;-72
2022/11/30 05:50:35;;;;;;;38.20;26.40;;;5.20;99.90;;;;;;4910833;29;20305;-72
2022/11/30 05:53:02;;;;;;;39.03;26.93;;;5.20;99.90;;;;;;4910363;29;20233;-72
2022/11/30 05:55:31;;;;;;;39.93;27.07;;;5.20;99.90;;;;;;4910389;29;20768;-72
2022/11/30 05:57:59;;;;;;;37.43;26.27;;;5.10;99.90;;;;;;4910799;29;20244;-72
2022/11/30 06:00:26;;;;;;;37.43;26.43;;;5.20;99.90;;;;;;4904796;29;20293;-72
2022/11/30 06:02:56;;;;;;;39.97;25.93;;;5.20;99.90;;;;;;4903510;29;20307;-72
2022/11/30 06:05:22;;;;;;;36.50;26.10;;;5.20;99.90;;;;;;4912502;29;20209;-72
2022/11/30 06:07:49;;;;;;;36.93;25.83;;;5.20;99.90;;;;;;4914018;29;20280;-73
2022/11/30 06:10:16;;;;;;;37.60;25.97;;;5.20;99.90;;;;;;4914341;29;20205;-73
2022/11/30 06:12:43;;;;;;;39.07;27.17;;;5.20;99.90;;;;;;4914021;29;20327;-72
2022/11/30 06:15:12;;;;;;;35.30;25.57;;;5.20;99.90;;;;;;4914570;29;20754;-72
2022/11/30 06:17:39;;;;;;;37.00;26.90;;;5.20;99.90;;;;;;4914409;29;20292;-72
2022/11/30 06:20:07;;;;;;;35.27;25.50;;;5.20;99.90;;;;;;4914376;29;20757;-72
2022/11/30 06:22:34;;;;;;;37.33;26.30;;;5.20;99.90;;;;;;4913864;29;20588;-72
2022/11/30 06:25:01;;;;;;;37.70;26.07;;;5.20;99.90;;;;;;4914009;29;20327;-72
2022/11/30 06:27:31;;;;;;;37.27;25.87;;;5.20;99.90;;;;;;4913970;29;20213;-72
2022/11/30 06:29:58;;;;;;;43.10;27.07;;;5.20;99.90;;;;;;4913574;29;20228;-72
2022/11/30 06:32:26;;;;;;;37.50;26.03;;;5.20;99.90;;;;;;4913997;29;20264;-72
2022/11/30 06:34:53;;;;;;;37.70;26.17;;;5.20;99.90;;;;;;4913535;29;20682;-72
2022/11/30 06:37:20;;;;;;;36.63;25.00;;;5.20;99.90;;;;;;4913809;29;20247;-72
2022/11/30 06:39:47;;;;;;;36.10;26.00;;;5.20;99.90;;;;;;4913239;29;20293;-73
2022/11/30 06:42:14;;;;;;;37.83;26.37;;;5.30;99.90;;;;;;4913744;29;20213;-72
2022/11/30 06:44:40;;;;;;;36.83;25.67;;;5.30;99.90;;;;;;4913628;29;20308;-72
2022/11/30 06:47:07;;;;;;;36.53;26.40;;;5.20;99.90;;;;;;4913538;29;20292;-72
2022/11/30 06:49:35;;;;;;;35.20;25.30;;;5.20;99.90;;;;;;4913507;29;20747;-72
2022/11/30 06:52:02;;;;;;;36.77;26.30;;;5.20;99.90;;;;;;4913801;29;20247;-72
2022/11/30 06:54:29;;;;;;;37.43;26.53;;;5.20;99.90;;;;;;4912866;29;20215;-72
2022/11/30 06:56:56;;;;;;;38.87;26.07;;;5.20;99.90;;;;;;4913817;29;20307;-72
2022/11/30 06:59:23;;;;;;;36.77;25.70;;;5.30;99.90;;;;;;4913069;29;20213;-72
2022/11/30 07:01:50;;;;;;;37.70;25.73;;;5.20;99.90;;;;;;4913414;29;20296;-72
2022/11/30 07:04:17;;;;;;;38.40;26.33;;;5.30;99.90;;;;;;4913172;29;20268;-72
2022/11/30 07:06:45;;;;;;;35.33;24.50;;;5.30;99.90;;;;;;4913047;29;20299;-72
2022/11/30 07:09:13;;;;;;;36.30;25.20;;;5.30;99.90;;;;;;4913082;29;20212;-73
2022/11/30 07:11:40;;;;;;;36.17;25.50;;;5.30;99.90;;;;;;4913144;29;20209;-72
2022/11/30 07:14:09;;;;;;;34.47;24.47;;;5.20;99.90;;;;;;4913376;29;20237;-72
2022/11/30 07:16:36;;;;;;;35.40;25.37;;;5.20;99.90;;;;;;4912508;29;20223;-72
2022/11/30 07:19:03;;;;;;;34.90;25.27;;;5.20;99.90;;;;;;4913142;29;20252;-72
2022/11/30 07:21:30;;;;;;;38.47;26.13;;;5.30;99.90;;;;;;4913209;29;20249;-72
2022/11/30 07:26:43;;;;;;;35.37;24.20;;;5.30;99.90;;;;;;4911777;29;20224;-72
2022/11/30 07:29:10;;;;;;;36.20;24.90;;;5.30;99.90;;;;;;4912822;29;20240;-72
2022/11/30 07:31:37;;;;;;;35.83;25.70;;;5.30;99.90;;;;;;4912882;29;20310;-72
2022/11/30 07:34:06;;;;;;;35.30;25.43;;;5.30;99.90;;;;;;4913001;29;20268;-72
2022/11/30 07:36:34;;;;;;;33.93;24.60;;;5.30;99.90;;;;;;4912909;29;20581;-72
2022/11/30 07:39:03;;;;;;;35.70;25.90;;;5.30;99.90;;;;;;4912080;29;20604;-72
2022/11/30 07:41:30;;;;;;;36.60;25.73;;;5.30;99.90;;;;;;4912235;29;20304;-72
2022/11/30 07:43:58;;;;;;;36.23;26.00;;;5.30;99.90;;;;;;4912654;29;20634;-72
2022/11/30 07:46:25;;;;;;;36.67;26.37;;;5.30;99.90;;;;;;4912567;29;20728;-72
2022/11/30 07:48:52;;;;;;;36.37;24.47;;;5.30;99.90;;;;;;4912446;29;20209;-72
2022/11/30 07:51:20;;;;;;;34.60;24.33;;;5.30;99.90;;;;;;4912531;29;20556;-72
2022/11/30 07:53:47;;;;;;;34.23;24.77;;;5.30;99.90;;;;;;4912226;29;20259;-72
2022/11/30 07:56:17;;;;;;;35.50;24.73;;;5.30;99.90;;;;;;4912238;29;20213;-72
2022/11/30 07:58:45;;;;;;;35.63;25.33;;;5.30;99.90;;;;;;4912403;29;20315;-72
2022/11/30 08:01:15;;;;;;;36.90;24.10;;;5.30;99.90;;;;;;4912040;29;20307;-72
2022/11/30 08:03:42;;;;;;;37.60;25.13;;;5.30;99.90;;;;;;4912354;29;20309;-72
2022/11/30 08:06:11;;;;;;;38.73;25.70;;;5.30;99.90;;;;;;4912054;29;20209;-72
2022/11/30 08:08:39;;;;;;;35.03;24.20;;;5.30;99.90;;;;;;4911764;29;20296;-72
2022/11/30 08:11:08;;;;;;;36.07;24.30;;;5.30;99.90;;;;;;4912090;29;21054;-72
2022/11/30 08:13:36;;;;;;;36.57;24.43;;;5.30;99.90;;;;;;4912002;29;20331;-72
2022/11/30 08:16:05;;;;;;;34.27;24.10;;;5.30;99.90;;;;;;4911922;29;20702;-72
2022/11/30 08:18:32;;;;;;;32.80;22.83;;;5.30;99.90;;;;;;4912325;29;20292;-72
2022/11/30 08:20:59;;;;;;;31.63;24.13;;;5.30;99.90;;;;;;4910172;29;20716;-72
2022/11/30 08:23:28;;;;;;;37.90;24.20;;;5.30;99.90;;;;;;4911919;29;20232;-72
2022/11/30 08:25:55;;;;;;;32.20;23.57;;;5.30;99.90;;;;;;4911322;29;20217;-72
2022/11/30 08:28:22;;;;;;;34.03;22.77;;;5.30;99.90;;;;;;4910824;29;20312;-72
2022/11/30 08:30:50;;;;;;;37.53;25.00;;;5.30;99.90;;;;;;4911781;29;20249;-72
2022/11/30 08:33:17;;;;;;;34.90;22.93;;;5.30;99.90;;;;;;4911641;29;20264;-72
2022/11/30 08:35:44;;;;;;;37.17;24.53;;;5.30;99.90;;;;;;4911562;29;20638;-72
2022/11/30 08:38:11;;;;;;;33.03;22.40;;;5.30;99.90;;;;;;4911804;29;20236;-72
2022/11/30 08:40:37;;;;;;;31.37;23.57;;;5.30;99.90;;;;;;4910830;29;20225;-72
2022/11/30 08:43:04;;;;;;;34.97;22.93;;;5.30;99.90;;;;;;4911552;29;20248;-72
2022/11/30 08:45:31;;;;;;;31.60;22.30;;;5.30;99.90;;;;;;4911353;29;20299;-72
2022/11/30 08:47:59;;;;;;;31.37;22.67;;;5.30;99.90;;;;;;4911007;29;20296;-72
2022/11/30 08:50:26;;;;;;;31.63;23.20;;;5.30;99.90;;;;;;4911217;29;20296;-72
2022/11/30 08:52:54;;;;;;;32.87;23.17;;;5.30;99.90;;;;;;4911269;29;20323;-72
2022/11/30 08:55:21;;;;;;;28.70;22.60;;;5.40;99.90;;;;;;4911232;29;20277;-72
2022/11/30 08:57:48;;;;;;;31.47;22.60;;;5.40;99.90;;;;;;4911405;29;20292;-72
2022/11/30 09:00:16;;;;;;;31.60;22.57;;;5.30;99.90;;;;;;4911489;29;20237;-72
2022/11/30 09:02:42;;;;;;;33.07;22.53;;;5.40;99.90;;;;;;4911225;29;20259;-72
2022/11/30 09:05:11;;;;;;;31.23;22.50;;;5.40;99.90;;;;;;4911730;29;20303;-72
2022/11/30 09:07:37;;;;;;;31.70;22.57;;;5.40;99.90;;;;;;4911117;29;20323;-72
2022/11/30 09:10:05;;;;;;;31.07;22.37;;;5.40;99.90;;;;;;4910951;29;20763;-72
2022/11/30 09:12:34;;;;;;;33.80;22.43;;;5.40;99.90;;;;;;4911054;29;20216;-72
2022/11/30 09:15:01;;;;;;;30.90;22.40;;;5.50;99.90;;;;;;4911247;29;20247;-72
2022/11/30 09:17:28;;;;;;;31.00;21.93;;;5.50;99.90;;;;;;4911022;29;20641;-72
2022/11/30 09:19:55;;;;;;;29.23;21.67;;;5.50;99.90;;;;;;4911237;29;20307;-72
2022/11/30 09:22:23;;;;;;;30.70;22.60;;;5.50;99.90;;;;;;4911054;29;20212;-72
2022/11/30 09:24:50;;;;;;;31.77;21.63;;;5.50;99.90;;;;;;4910670;29;20304;-72
2022/11/30 09:27:17;;;;;;;28.47;21.47;;;5.50;99.90;;;;;;4911527;29;20282;-72
2022/11/30 09:29:44;;;;;;;32.13;22.27;;;5.50;99.90;;;;;;4911192;29;20235;-72
2022/11/30 09:32:11;;;;;;;30.83;21.93;;;5.60;99.90;;;;;;4910993;29;20336;-72
2022/11/30 09:34:38;;;;;;;29.17;21.17;;;5.60;99.90;;;;;;4911212;29;20237;-72
2022/11/30 09:37:05;;;;;;;30.63;22.37;;;5.60;99.90;;;;;;4911278;29;20295;-72
2022/11/30 09:39:33;;;;;;;32.27;22.57;;;5.60;99.90;;;;;;4911710;29;20303;-72
2022/11/30 09:42:24;;;;;;;31.43;22.10;;;5.70;99.90;;;;;;4914860;29;20240;-72
2022/11/30 09:45:01;;;;;;;30.63;22.27;;;5.70;99.90;;;;;;4914808;29;20208;-72
2022/11/30 09:48:00;;;;;;;32.37;20.60;;;5.70;99.90;;;;;;4914835;29;20280;-72
2022/11/30 09:50:32;;;;;;;28.50;21.37;;;5.70;99.90;;;;;;4897729;29;20244;-73
2022/11/30 09:53:03;;;;;;;30.20;21.77;;;5.70;99.90;;;;;;4914624;29;20233;-72
2022/11/30 09:55:38;;;;;;;29.27;20.37;;;5.70;99.90;;;;;;4914395;29;20793;-72
2022/11/30 09:58:06;;;;;;;31.50;22.47;;;5.70;99.90;;;;;;4914877;29;20235;-79
2022/11/30 10:00:35;;;;;;;29.73;22.20;;;5.80;99.90;;;;;;4914579;29;20316;-72
2022/11/30 10:03:05;;;;;;;31.77;21.63;;;5.90;99.90;;;;;;4914368;29;20305;-72
2022/11/30 10:05:42;;;;;;;31.37;22.27;;;5.90;99.90;;;;;;4914590;29;20209;-72
2022/11/30 10:08:26;;;;;;;30.97;21.47;;;5.80;99.90;;;;;;4914032;29;20283;-72
2022/11/30 10:11:07;;;;;;;31.93;23.03;;;5.90;99.90;;;;;;4914121;29;20201;-72
2022/11/30 10:13:49;;;;;;;27.67;20.40;;;5.90;99.90;;;;;;4914131;29;20260;-72
2022/11/30 10:16:23;;;;;;;29.10;21.70;;;5.90;99.90;;;;;;4914143;29;20724;-72
2022/11/30 10:19:00;;;;;;;28.00;21.17;;;5.90;99.90;;;;;;4914314;29;20743;-72
2022/11/30 10:21:40;;;;;;;29.43;22.17;;;5.90;99.90;;;;;;4914254;29;20321;-72
2022/11/30 10:24:20;;;;;;;30.83;22.10;;;5.90;99.90;;;;;;4914058;29;20211;-72
2022/11/30 10:26:54;;;;;;;30.30;22.17;;;6.00;99.90;;;;;;4913704;29;20362;-72
2022/11/30 10:29:29;;;;;;;30.77;22.07;;;5.90;99.90;;;;;;4913974;29;20239;-72
2022/11/30 10:31:59;;;;;;;29.13;22.47;;;6.00;99.90;;;;;;4913943;29;20193;-72
2022/11/30 10:34:31;;;;;;;30.87;22.07;;;6.00;99.90;;;;;;4914064;29;20267;-72
2022/11/30 10:37:03;;;;;;;30.10;21.90;;;6.00;99.90;;;;;;4913546;29;20205;-72
2022/11/30 10:39:37;;;;;;;30.13;22.20;;;6.00;99.90;;;;;;4913343;29;20303;-72
2022/11/30 10:42:12;;;;;;;30.20;22.30;;;6.00;99.90;;;;;;4913512;29;20611;-72
2022/11/30 10:44:42;;;;;;;34.13;23.43;;;6.00;99.90;;;;;;4913583;29;20660;-72
2022/11/30 10:47:17;;;;;;;31.83;22.23;;;6.10;99.90;;;;;;4913995;29;20212;-72
2022/11/30 10:49:48;;;;;;;30.33;22.37;;;6.20;99.90;;;;;;4913663;29;20603;-72
2022/11/30 10:52:18;;;;;;;31.40;22.67;;;6.20;99.90;;;;;;4913023;29;20201;-72
2022/11/30 10:54:45;;;;;;;32.87;22.50;;;6.20;99.90;;;;;;4913077;29;20775;-72
2022/11/30 10:57:14;;;;;;;34.77;23.30;;;6.20;99.90;;;;;;4913468;29;20720;-72
2022/11/30 10:59:44;;;;;;;31.10;22.17;;;6.20;99.90;;;;;;4913458;29;20300;-72
2022/11/30 11:02:33;;;;;;;33.10;22.37;;;6.20;99.90;;;;;;4913430;29;20555;-72
2022/11/30 11:05:14;;;;;;;28.37;22.07;;;6.20;99.90;;;;;;4913060;29;20476;-72
2022/11/30 11:07:47;;;;;;;28.47;22.10;;;6.30;99.90;;;;;;4912808;29;20292;-72
2022/11/30 11:10:16;;;;;;;30.73;22.80;;;6.30;99.90;;;;;;4912721;29;20309;-73
2022/11/30 11:12:50;;;;;;;30.90;22.63;;;6.30;99.90;;;;;;4913516;29;20307;-73
2022/11/30 11:15:20;;;;;;;31.93;22.97;;;6.30;99.90;;;;;;4913049;29;20738;-72
2022/11/30 11:17:48;;;;;;;32.73;23.33;;;6.30;99.90;;;;;;4913393;29;20205;-72
2022/11/30 11:20:30;;;;;;;35.63;23.10;;;6.30;99.90;;;;;;4913350;29;20312;-72
2022/11/30 11:22:57;;;;;;;30.50;22.87;;;6.30;99.90;;;;;;4912810;29;20945;-72
2022/11/30 11:25:31;;;;;;;33.93;23.40;;;6.30;99.90;;;;;;4912846;29;20247;-71
2022/11/30 11:28:07;;;;;;;33.33;23.13;;;6.30;99.90;;;;;;4913062;29;20205;-72
2022/11/30 11:30:35;;;;;;;37.90;24.00;;;6.30;99.90;;;;;;4913256;29;20711;-71
2022/11/30 11:33:05;;;;;;;31.10;23.30;;;6.30;99.90;;;;;;4913081;29;20245;-72
2022/11/30 11:35:38;;;;;;;31.03;23.73;;;6.30;99.90;;;;;;4912880;29;20236;-71
2022/11/30 11:38:18;;;;;;;32.33;23.70;;;6.30;99.90;;;;;;4912682;29;20252;-71
2022/11/30 11:40:53;;;;;;;32.33;23.40;;;6.30;99.90;;;;;;4912303;29;20668;-72
2022/11/30 11:43:23;;;;;;;33.67;25.23;;;6.40;99.90;;;;;;4913206;29;20196;-71
2022/11/30 11:45:53;;;;;;;33.07;23.50;;;6.30;99.90;;;;;;4913253;29;20665;-71
2022/11/30 11:48:39;;;;;;;32.67;24.07;;;6.30;99.90;;;;;;4912747;29;20237;-72
2022/11/30 11:51:08;;;;;;;34.03;24.97;;;6.40;99.90;;;;;;4912959;29;20284;-71
2022/11/30 11:53:43;;;;;;;33.70;24.70;;;6.40;99.90;;;;;;4912350;29;20677;-72
2022/11/30 11:56:15;;;;;;;34.90;24.27;;;6.30;99.90;;;;;;4912532;29;20336;-72
2022/11/30 11:58:47;;;;;;;35.70;24.20;;;6.40;99.90;;;;;;4912508;29;20193;-71
2022/11/30 12:01:21;;;;;;;34.90;24.07;;;6.40;99.90;;;;;;4912529;29;20201;-72
2022/11/30 12:04:00;;;;;;;33.30;24.27;;;6.40;99.90;;;;;;4912205;29;20291;-71
2022/11/30 12:06:27;;;;;;;35.47;24.20;;;6.40;99.90;;;;;;4911773;29;20319;-71
2022/11/30 12:08:59;;;;;;;33.10;24.17;;;6.40;99.90;;;;;;4912105;29;20209;-72
2022/11/30 12:11:32;;;;;;;33.13;23.17;;;6.40;99.90;;;;;;4912059;29;20193;-71
2022/11/30 12:14:08;;;;;;;36.30;24.60;;;6.50;99.90;;;;;;4912075;29;20694;-72
2022/11/30 12:16:42;;;;;;;31.93;23.97;;;6.40;99.90;;;;;;4912260;29;20320;-71
2022/11/30 12:19:15;;;;;;;34.03;24.57;;;6.40;99.90;;;;;;4912248;29;20666;-72
2022/11/30 12:21:53;;;;;;;39.23;24.90;;;6.50;99.90;;;;;;4911617;29;20205;-72
2022/11/30 12:24:40;;;;;;;33.30;24.97;;;6.50;99.90;;;;;;4911881;29;20287;-72
2022/11/30 12:27:16;;;;;;;38.70;25.80;;;6.50;99.90;;;;;;4912092;29;20644;-71
2022/11/30 12:29:51;;;;;;;31.43;25.07;;;6.50;99.90;;;;;;4911833;29;20539;-71
2022/11/30 12:32:27;;;;;;;36.43;26.47;;;6.50;99.90;;;;;;4912128;29;20292;-71
2022/11/30 12:35:18;;;;;;;33.53;25.10;;;6.50;99.90;;;;;;4911712;29;20311;-72
2022/11/30 12:37:54;;;;;;;37.40;25.30;;;6.50;99.90;;;;;;4911804;29;20325;-71
2022/11/30 12:40:33;;;;;;;35.10;25.80;;;6.50;99.90;;;;;;4911539;29;20211;-72
2022/11/30 12:43:10;;;;;;;35.10;25.00;;;6.50;99.90;;;;;;4911565;29;20279;-71
2022/11/30 12:45:43;;;;;;;36.03;26.13;;;6.60;99.90;;;;;;4911375;29;20244;-71
2022/11/30 12:48:22;;;;;;;36.07;25.73;;;6.50;99.90;;;;;;4911788;29;20205;-72
2022/11/30 12:51:03;;;;;;;37.57;26.77;;;6.60;99.90;;;;;;4911551;29;20296;-71